createdAt,value
2018-08-21T00:01:23.366Z,80.80
2018-08-21T00:03:56.117Z,84.53
2018-08-21T00:06:28.719Z,90.60
2018-08-21T00:09:01.612Z,90.23
2018-08-21T00:11:49.903Z,89.13
2018-08-21T00:14:24.201Z,92.93
2018-08-21T00:16:57.544Z,91.37
2018-08-21T00:19:31.121Z,98.07
2018-08-21T00:22:04.373Z,95.60
2018-08-21T00:24:37.908Z,95.77
2018-08-21T00:27:10.531Z,107.30
2018-08-21T00:29:43.846Z,101.50
2018-08-21T00:32:16.787Z,103.80
2018-08-21T00:34:50.798Z,107.37
2018-08-21T00:37:23.815Z,107.70
2018-08-21T00:39:56.821Z,105.00
2018-08-21T00:42:29.037Z,109.60
2018-08-21T00:45:06.691Z,100.47
2018-08-21T00:47:39.096Z,111.53
2018-08-21T00:50:11.823Z,104.80
2018-08-21T00:52:44.007Z,106.00
2018-08-21T00:55:16.482Z,107.57
2018-08-21T00:57:48.806Z,111.37
2018-08-21T01:00:21.011Z,107.43
2018-08-21T01:02:53.342Z,101.67
2018-08-21T01:05:26.597Z,109.47
2018-08-21T01:07:59.258Z,103.97
2018-08-21T01:10:31.753Z,106.07
2018-08-21T01:13:03.647Z,109.00
2018-08-21T01:15:36.526Z,105.20
2018-08-21T01:18:09.265Z,110.93
2018-08-21T01:20:42.311Z,109.47
2018-08-21T01:23:15.069Z,108.20
2018-08-21T01:25:47.174Z,109.83
2018-08-21T01:28:19.732Z,106.73
2018-08-21T01:30:52.213Z,107.90
2018-08-21T01:33:24.768Z,102.07
2018-08-21T01:35:56.754Z,112.70
2018-08-21T01:38:29.613Z,110.23
2018-08-21T01:41:02.060Z,108.93
2018-08-21T01:43:34.555Z,110.40
2018-08-21T01:46:07.301Z,112.70
2018-08-21T01:48:39.588Z,113.07
2018-08-21T01:51:12.542Z,107.97
2018-08-21T01:54:17.159Z,107.07
2018-08-21T01:56:49.098Z,105.37
2018-08-21T01:59:22.761Z,110.50
2018-08-21T02:01:55.157Z,112.30
2018-08-21T02:04:28.047Z,106.03
2018-08-21T02:07:00.358Z,109.43
2018-08-21T02:09:32.761Z,113.63
2018-08-21T02:12:05.101Z,110.63
2018-08-21T02:14:37.520Z,107.90
2018-08-21T02:17:09.794Z,106.70
2018-08-21T02:19:42.578Z,107.47
2018-08-21T02:22:15.176Z,102.93
2018-08-21T02:24:47.767Z,110.77
2018-08-21T02:27:20.138Z,110.13
2018-08-21T02:29:52.264Z,110.27
2018-08-21T02:32:24.474Z,109.23
2018-08-21T02:34:56.844Z,110.67
2018-08-21T02:37:29.186Z,109.53
2018-08-21T02:40:15.043Z,109.43
2018-08-21T02:42:51.440Z,109.90
2018-08-21T02:45:24.311Z,106.47
2018-08-21T02:47:56.565Z,112.53
2018-08-21T02:50:29.010Z,112.00
2018-08-21T02:53:01.321Z,113.97
2018-08-21T02:55:33.860Z,113.17
2018-08-21T02:58:06.457Z,107.10
2018-08-21T03:00:38.734Z,109.67
2018-08-21T03:03:11.747Z,112.73
2018-08-21T03:05:44.350Z,110.07
2018-08-21T03:08:16.537Z,112.37
2018-08-21T03:10:49.003Z,108.47
2018-08-21T03:13:21.781Z,109.70
2018-08-21T03:15:54.195Z,108.50
2018-08-21T03:18:26.545Z,110.30
2018-08-21T03:20:58.698Z,115.40
2018-08-21T03:23:30.887Z,110.00
2018-08-21T03:26:03.335Z,111.97
2018-08-21T03:28:35.867Z,112.60
2018-08-21T03:31:08.308Z,106.47
2018-08-21T03:33:40.637Z,111.40
2018-08-21T03:36:13.539Z,119.30
2018-08-21T03:38:45.924Z,119.80
2018-08-21T03:41:18.426Z,107.87
2018-08-21T03:43:51.109Z,115.70
2018-08-21T03:46:23.718Z,115.97
2018-08-21T03:48:56.580Z,118.33
2018-08-21T03:51:29.549Z,111.10
2018-08-21T03:54:01.707Z,114.93
2018-08-21T03:56:34.777Z,109.13
2018-08-21T03:59:08.007Z,112.57
2018-08-21T04:01:41.517Z,115.37
2018-08-21T04:04:14.102Z,116.77
2018-08-21T04:06:47.265Z,129.83
2018-08-21T04:09:19.369Z,112.23
2018-08-21T04:11:52.376Z,112.70
2018-08-21T04:14:25.178Z,116.70
2018-08-21T04:16:57.985Z,115.60
2018-08-21T04:19:30.685Z,119.57
2018-08-21T04:22:17.556Z,121.00
2018-08-21T04:24:50.906Z,113.83
2018-08-21T04:27:22.879Z,119.83
2018-08-21T04:29:54.858Z,117.50
2018-08-21T04:32:28.615Z,120.60
2018-08-21T04:35:01.465Z,118.70
2018-08-21T04:37:34.490Z,118.17
2018-08-21T04:40:07.126Z,117.33
2018-08-21T04:42:39.782Z,111.90
2018-08-21T04:45:11.934Z,117.47
2018-08-21T04:47:44.423Z,120.97
2018-08-21T04:50:16.402Z,119.87
2018-08-21T04:52:49.465Z,119.00
2018-08-21T04:55:21.963Z,117.87
2018-08-21T04:57:54.310Z,120.83
2018-08-21T05:00:30.481Z,118.47
2018-08-21T05:03:03.226Z,122.80
2018-08-21T05:05:36.188Z,112.53
2018-08-21T05:08:08.636Z,116.03
2018-08-21T05:10:40.903Z,114.73
2018-08-21T05:13:13.409Z,120.30
2018-08-21T05:15:45.739Z,122.90
2018-08-21T05:18:18.291Z,116.43
2018-08-21T05:20:50.623Z,114.70
2018-08-21T05:23:23.571Z,116.77
2018-08-21T05:25:58.156Z,113.20
2018-08-21T05:28:31.913Z,106.20
2018-08-21T05:31:07.688Z,112.60
2018-08-21T05:33:39.885Z,108.93
2018-08-21T05:36:12.656Z,105.40
2018-08-21T05:38:45.449Z,105.00
2018-08-21T05:41:17.797Z,96.40
2018-08-21T05:43:50.574Z,94.23
2018-08-21T05:46:23.318Z,94.70
2018-08-21T05:48:55.386Z,91.33
2018-08-21T05:51:28.057Z,85.77
2018-08-21T05:54:00.559Z,94.60
2018-08-21T05:56:32.905Z,96.33
2018-08-21T05:59:07.117Z,83.10
2018-08-21T06:01:41.747Z,83.77
2018-08-21T06:04:14.241Z,85.70
2018-08-21T06:06:47.065Z,82.43
2018-08-21T06:09:19.395Z,82.20
2018-08-21T06:11:51.661Z,82.80
2018-08-21T06:14:24.004Z,88.13
2018-08-21T06:16:56.706Z,76.77
2018-08-21T06:19:29.466Z,81.27
2018-08-21T06:22:01.984Z,80.97
2018-08-21T06:24:34.481Z,75.60
2018-08-21T06:27:07.199Z,77.27
2018-08-21T06:29:39.678Z,82.47
2018-08-21T06:32:12.323Z,83.80
2018-08-21T06:34:44.666Z,77.50
2018-08-21T06:37:17.703Z,77.23
2018-08-21T06:39:49.968Z,83.50
2018-08-21T06:42:22.695Z,74.73
2018-08-21T06:44:57.950Z,78.93
2018-08-21T06:47:30.817Z,81.20
2018-08-21T06:50:03.042Z,78.17
2018-08-21T06:52:35.409Z,83.80
2018-08-21T06:55:08.105Z,74.90
2018-08-21T06:57:40.445Z,83.97
2018-08-21T07:00:14.568Z,84.90
2018-08-21T07:02:47.455Z,89.93
2018-08-21T07:05:20.105Z,85.77
2018-08-21T07:07:52.694Z,96.67
2018-08-21T07:10:25.209Z,99.00
2018-08-21T07:12:57.390Z,104.30
2018-08-21T07:15:30.134Z,108.23
2018-08-21T07:18:02.290Z,112.87
2018-08-21T07:20:35.439Z,111.67
2018-08-21T07:23:08.317Z,115.47
2018-08-21T07:25:45.203Z,118.33
2018-08-21T07:28:22.020Z,115.73
2018-08-21T07:30:55.269Z,120.57
2018-08-21T07:33:31.802Z,115.87
2018-08-21T07:36:04.265Z,122.60
2018-08-21T07:38:48.613Z,120.33
2018-08-21T07:41:21.697Z,122.53
2018-08-21T07:43:54.104Z,125.20
2018-08-21T07:46:26.482Z,115.27
2018-08-21T07:48:58.630Z,119.17
2018-08-21T07:51:30.599Z,121.03
2018-08-21T07:54:02.545Z,125.13
2018-08-21T07:56:34.810Z,120.63
2018-08-21T07:59:12.754Z,122.80
2018-08-21T08:01:49.425Z,117.87
2018-08-21T08:04:32.661Z,124.80
2018-08-21T08:07:10.151Z,119.93
2018-08-21T08:09:42.393Z,125.50
2018-08-21T08:12:14.890Z,122.40
2018-08-21T08:14:47.130Z,122.23
2018-08-21T08:17:19.564Z,123.30
2018-08-21T08:19:51.642Z,122.40
2018-08-21T08:22:25.875Z,123.63
2018-08-21T08:24:58.245Z,124.37
2018-08-21T08:27:30.912Z,121.43
2018-08-21T08:30:02.847Z,125.03
2018-08-21T08:32:35.329Z,124.77
2018-08-21T08:35:13.708Z,117.67
2018-08-21T08:37:47.247Z,123.40
2018-08-21T08:40:29.902Z,121.77
2018-08-21T08:43:08.651Z,123.27
2018-08-21T08:45:47.899Z,118.40
2018-08-21T08:48:21.763Z,120.03
2018-08-21T08:50:53.982Z,127.70
2018-08-21T08:53:26.397Z,127.43
2018-08-21T08:55:59.482Z,127.07
2018-08-21T08:58:31.839Z,127.17
2018-08-21T09:01:09.438Z,127.60
2018-08-21T09:03:48.813Z,124.70
2018-08-21T09:06:25.576Z,122.77
2018-08-21T09:08:57.964Z,122.93
2018-08-21T09:11:51.681Z,130.60
2018-08-21T09:14:29.333Z,127.80
2018-08-21T09:17:18.941Z,125.47
2018-08-21T09:20:01.974Z,115.20
2018-08-21T09:22:34.640Z,126.83
2018-08-21T09:25:07.135Z,125.33
2018-08-21T09:27:41.553Z,127.83
2018-08-21T09:30:24.121Z,115.73
2018-08-21T09:32:58.247Z,127.73
2018-08-21T09:35:30.838Z,122.20
2018-08-21T09:38:03.365Z,127.73
2018-08-21T09:40:35.922Z,120.77
2018-08-21T09:43:08.806Z,128.47
2018-08-21T09:45:40.742Z,126.67
2018-08-21T09:48:12.931Z,127.67
2018-08-21T09:50:45.767Z,122.00
2018-08-21T09:53:17.812Z,120.03
2018-08-21T09:55:49.868Z,127.93
2018-08-21T09:58:21.915Z,129.17
2018-08-21T10:00:58.729Z,129.40
2018-08-21T10:03:36.010Z,129.30
2018-08-21T10:06:09.368Z,125.80
2018-08-21T10:08:54.642Z,121.40
2018-08-21T10:11:28.179Z,125.57
2018-08-21T10:14:06.752Z,130.73
2018-08-21T10:16:39.024Z,129.10
2018-08-21T10:19:11.715Z,124.50
2018-08-21T10:21:43.774Z,126.33
2018-08-21T10:24:16.135Z,120.43
2018-08-21T10:26:48.398Z,123.60
2018-08-21T10:29:20.065Z,113.17
2018-08-21T10:31:52.359Z,123.03
2018-08-21T10:34:24.532Z,123.07
2018-08-21T10:36:56.720Z,120.30
2018-08-21T10:39:28.782Z,121.90
2018-08-21T10:42:01.449Z,129.87
2018-08-21T10:44:33.891Z,128.13
2018-08-21T10:47:06.214Z,121.20
2018-08-21T10:49:38.202Z,126.60
2018-08-21T10:52:10.495Z,124.13
2018-08-21T10:54:42.337Z,126.20
2018-08-21T10:57:14.860Z,128.40
2018-08-21T10:59:47.144Z,128.10
2018-08-21T11:02:33.725Z,131.73
2018-08-21T11:05:07.283Z,133.77
2018-08-21T11:08:05.927Z,124.30
2018-08-21T11:10:43.522Z,135.03
2018-08-21T11:13:15.662Z,130.90
2018-08-21T11:15:48.288Z,134.63
2018-08-21T11:18:20.710Z,128.60
2018-08-21T11:20:53.356Z,135.40
2018-08-21T11:23:25.544Z,136.93
2018-08-21T11:25:57.912Z,128.97
2018-08-21T11:28:31.550Z,132.90
2018-08-21T11:31:03.936Z,134.53
2018-08-21T11:33:36.524Z,131.70
2018-08-21T11:36:08.857Z,134.90
2018-08-21T11:38:41.012Z,135.47
2018-08-21T11:41:13.530Z,132.17
2018-08-21T11:43:45.856Z,136.30
2018-08-21T11:46:17.981Z,133.53
2018-08-21T11:48:50.800Z,135.27
2018-08-21T11:51:23.653Z,139.07
2018-08-21T11:53:55.910Z,134.43
2018-08-21T11:56:28.388Z,135.30
2018-08-21T11:59:01.528Z,132.67
2018-08-21T12:01:33.938Z,131.57
2018-08-21T12:04:06.530Z,131.03
2018-08-21T12:06:39.066Z,141.57
2018-08-21T12:09:12.219Z,134.20
2018-08-21T12:11:44.823Z,140.37
2018-08-21T12:14:17.217Z,137.57
2018-08-21T12:16:49.568Z,134.60
2018-08-21T12:19:22.061Z,138.97
2018-08-21T12:21:54.324Z,134.93
2018-08-21T12:24:26.608Z,131.83
2018-08-21T12:26:58.926Z,131.97
2018-08-21T12:29:31.224Z,138.80
2018-08-21T12:32:04.225Z,134.37
2018-08-21T12:34:36.604Z,134.90
2018-08-21T12:37:08.936Z,134.63
2018-08-21T12:39:41.113Z,143.40
2018-08-21T12:42:13.279Z,135.73
2018-08-21T12:44:45.539Z,135.40
2018-08-21T12:47:17.680Z,135.17
2018-08-21T12:49:50.062Z,135.07
2018-08-21T12:52:22.645Z,142.47
2018-08-21T12:54:55.142Z,137.80
2018-08-21T12:57:27.344Z,137.30
2018-08-21T12:59:59.970Z,129.83
2018-08-21T13:02:32.673Z,136.63
2018-08-21T13:05:05.067Z,135.57
2018-08-21T13:07:37.457Z,134.40
2018-08-21T13:10:10.146Z,133.73
2018-08-21T13:12:42.562Z,137.80
2018-08-21T13:15:14.907Z,133.33
2018-08-21T13:17:47.133Z,130.83
2018-08-21T13:20:19.265Z,127.50
2018-08-21T13:22:51.705Z,137.10
2018-08-21T13:25:24.302Z,127.90
2018-08-21T13:27:56.710Z,135.00
2018-08-21T13:30:28.973Z,125.37
2018-08-21T13:33:01.365Z,130.40
2018-08-21T13:35:33.783Z,128.63
2018-08-21T13:38:06.084Z,128.77
2018-08-21T13:40:38.708Z,127.63
2018-08-21T13:43:11.403Z,132.17
2018-08-21T13:45:43.813Z,131.13
2018-08-21T13:48:16.044Z,127.97
2018-08-21T13:50:48.593Z,128.90
2018-08-21T13:53:21.176Z,124.00
2018-08-21T13:55:54.868Z,130.73
2018-08-21T13:58:27.415Z,111.57
2018-08-21T14:00:59.825Z,106.97
2018-08-21T14:03:32.445Z,112.60
2018-08-21T14:06:04.811Z,109.53
2018-08-21T14:08:37.588Z,100.13
2018-08-21T14:11:10.004Z,92.63
2018-08-21T14:13:43.023Z,95.40
2018-08-21T14:16:15.590Z,90.47
2018-08-21T14:18:48.240Z,96.80
2018-08-21T14:21:20.761Z,96.50
2018-08-21T14:23:53.402Z,97.73
2018-08-21T14:26:25.820Z,101.53
2018-08-21T14:28:57.992Z,100.43
2018-08-21T14:31:30.387Z,103.63
2018-08-21T14:34:02.550Z,108.10
2018-08-21T14:36:34.718Z,95.40
2018-08-21T14:39:09.188Z,92.23
2018-08-21T14:41:41.816Z,61.00
2018-08-21T14:44:14.142Z,56.93
2018-08-21T14:46:46.506Z,57.27
2018-08-21T14:49:18.711Z,57.57
2018-08-21T14:51:51.291Z,59.53
2018-08-21T14:54:23.719Z,56.70
2018-08-21T14:56:56.376Z,58.37
2018-08-21T14:59:28.574Z,58.13
2018-08-21T15:02:00.586Z,56.33
2018-08-21T15:04:33.040Z,55.77
2018-08-21T15:07:05.165Z,60.00
2018-08-21T15:09:37.380Z,54.30
2018-08-21T15:12:09.774Z,55.17
2018-08-21T15:17:35.262Z,54.20
2018-08-21T15:20:07.526Z,55.40
2018-08-21T15:22:40.152Z,56.43
2018-08-21T15:25:12.683Z,59.67
2018-08-21T15:27:45.248Z,60.30
2018-08-21T15:30:17.567Z,58.30
2018-08-21T15:32:50.019Z,59.63
2018-08-21T15:35:22.961Z,61.80
2018-08-21T15:37:55.329Z,57.47
2018-08-21T15:40:27.760Z,61.90
2018-08-21T15:43:00.101Z,59.17
2018-08-21T15:45:33.322Z,58.87
2018-08-21T15:48:05.802Z,58.63
2018-08-21T15:50:38.147Z,56.97
2018-08-21T15:53:10.761Z,59.23
2018-08-21T15:55:43.022Z,61.00
2018-08-21T15:58:15.829Z,61.10
2018-08-21T16:00:48.611Z,60.50
2018-08-21T16:03:20.971Z,66.43
2018-08-21T16:05:53.448Z,64.90
2018-08-21T16:08:25.775Z,61.20
2018-08-21T16:10:57.948Z,65.07
2018-08-21T16:13:30.607Z,62.50
2018-08-21T16:16:02.933Z,66.57
2018-08-21T16:18:35.590Z,64.00
2018-08-21T16:21:07.866Z,63.13
2018-08-21T16:23:40.186Z,68.23
2018-08-21T16:26:12.582Z,62.13
2018-08-21T16:28:44.971Z,70.90
2018-08-21T16:31:17.297Z,65.37
2018-08-21T16:33:49.536Z,70.90
2018-08-21T16:36:22.133Z,63.90
2018-08-21T16:38:54.460Z,68.17
2018-08-21T16:41:27.022Z,73.03
2018-08-21T16:43:59.220Z,69.87
2018-08-21T16:46:31.866Z,63.93
2018-08-21T16:49:04.376Z,62.20
2018-08-21T16:51:37.180Z,62.83
2018-08-21T16:54:09.047Z,63.33
2018-08-21T16:56:41.422Z,61.97
2018-08-21T16:59:13.693Z,62.40
2018-08-21T17:01:45.997Z,60.47
2018-08-21T17:04:18.259Z,68.37
2018-08-21T17:06:50.851Z,67.00
2018-08-21T17:09:23.133Z,57.67
2018-08-21T17:11:55.500Z,60.43
2018-08-21T17:14:27.949Z,55.83
2018-08-21T17:17:00.041Z,54.50
2018-08-21T17:19:32.637Z,54.30
2018-08-21T17:22:05.007Z,54.17
2018-08-21T17:24:37.283Z,55.50
2018-08-21T17:27:08.639Z,52.47
2018-08-21T17:29:41.544Z,51.20
2018-08-21T17:32:13.715Z,54.20
2018-08-21T17:34:46.256Z,54.33
2018-08-21T17:37:18.741Z,56.33
2018-08-21T17:39:51.220Z,51.67
2018-08-21T17:42:23.546Z,51.40
2018-08-21T17:44:55.816Z,54.47
2018-08-21T17:47:28.011Z,52.07
2018-08-21T17:50:00.573Z,50.97
2018-08-21T17:52:32.931Z,50.67
2018-08-21T17:55:05.549Z,53.93
2018-08-21T17:57:37.907Z,49.03
2018-08-21T18:00:11.781Z,53.10
2018-08-21T18:02:44.353Z,52.70
2018-08-21T18:05:16.829Z,52.37
2018-08-21T18:07:49.479Z,51.17
2018-08-21T18:10:21.801Z,51.07
2018-08-21T18:12:54.463Z,51.13
2018-08-21T18:15:26.959Z,54.07
2018-08-21T18:17:59.831Z,48.50
2018-08-21T18:20:32.095Z,53.37
2018-08-21T18:23:04.629Z,54.67
2018-08-21T18:25:37.520Z,52.90
2018-08-21T18:28:11.113Z,51.70
2018-08-21T18:30:43.629Z,50.17
2018-08-21T18:33:15.946Z,49.47
2018-08-21T18:35:48.596Z,51.17
2018-08-21T18:38:20.692Z,53.30
2018-08-21T18:40:53.386Z,52.63
2018-08-21T18:43:25.903Z,50.90
2018-08-21T18:45:58.339Z,56.50
2018-08-21T18:48:30.408Z,48.70
2018-08-21T18:51:02.856Z,50.23
2018-08-21T18:53:35.276Z,50.30
2018-08-21T18:56:07.918Z,53.40
2018-08-21T18:58:40.241Z,52.47
2018-08-21T19:01:12.744Z,50.63
2018-08-21T19:03:45.260Z,50.17
2018-08-21T19:06:18.818Z,52.20
2018-08-21T19:08:50.977Z,48.30
2018-08-21T19:11:23.286Z,46.43
2018-08-21T19:13:55.555Z,47.63
2018-08-21T19:16:28.065Z,51.80
2018-08-21T19:19:00.524Z,48.57
2018-08-21T19:21:33.061Z,48.30
2018-08-21T19:24:05.629Z,48.20
2018-08-21T19:26:38.760Z,48.00
2018-08-21T19:29:11.246Z,45.80
2018-08-21T19:31:43.837Z,44.67
2018-08-21T19:34:16.324Z,46.60
2018-08-21T19:36:48.386Z,44.03
2018-08-21T19:39:20.806Z,49.03
2018-08-21T19:41:53.346Z,45.20
2018-08-21T19:44:25.540Z,43.40
2018-08-21T19:46:57.789Z,42.40
2018-08-21T19:49:30.206Z,44.03
2018-08-21T19:52:02.723Z,44.20
2018-08-21T19:54:35.119Z,44.10
2018-08-21T19:57:07.738Z,44.03
2018-08-21T19:59:39.809Z,41.77
2018-08-21T20:02:12.408Z,42.00
2018-08-21T20:04:45.065Z,45.07
2018-08-21T20:07:17.673Z,43.27
2018-08-21T20:09:50.078Z,43.57
2018-08-21T20:12:22.040Z,43.77
2018-08-21T20:14:54.585Z,44.63
2018-08-21T20:17:26.732Z,42.53
2018-08-21T20:19:59.129Z,44.17
2018-08-21T20:22:31.547Z,44.30
2018-08-21T20:25:03.710Z,45.43
2018-08-21T20:27:36.601Z,42.03
2018-08-21T20:30:09.180Z,41.97
2018-08-21T20:32:41.818Z,45.43
2018-08-21T20:35:15.371Z,43.00
2018-08-21T20:37:47.552Z,43.80
2018-08-21T20:40:20.703Z,42.27
2018-08-21T20:42:52.976Z,44.90
2018-08-21T20:45:25.504Z,41.40
2018-08-21T20:47:57.682Z,43.57
2018-08-21T20:50:30.203Z,42.70
2018-08-21T20:53:02.765Z,44.73
2018-08-21T20:55:35.059Z,45.67
2018-08-21T20:58:07.929Z,41.20
2018-08-21T21:00:40.963Z,41.60
2018-08-21T21:03:13.385Z,46.93
2018-08-21T21:05:45.684Z,42.20
2018-08-21T21:08:18.391Z,44.93
2018-08-21T21:10:50.777Z,44.10
2018-08-21T21:13:32.150Z,45.20
2018-08-21T21:16:13.761Z,47.87
2018-08-21T21:18:55.110Z,43.93
2018-08-21T21:21:36.523Z,44.40
2018-08-21T21:24:17.052Z,46.60
2018-08-21T21:26:49.511Z,46.07
2018-08-21T21:29:21.782Z,47.50
2018-08-21T21:31:54.092Z,46.23
2018-08-21T21:34:26.704Z,45.27
2018-08-21T21:36:59.013Z,47.50
2018-08-21T21:39:31.258Z,48.10
2018-08-21T21:42:03.407Z,48.87
2018-08-21T21:44:35.790Z,48.00
2018-08-21T21:47:07.989Z,46.60
2018-08-21T21:49:39.855Z,48.73
2018-08-21T21:52:11.854Z,50.30
2018-08-21T21:54:44.544Z,47.63
2018-08-21T21:57:16.864Z,54.40
2018-08-21T21:59:49.300Z,50.93
2018-08-21T22:02:22.102Z,50.13
2018-08-21T22:04:54.300Z,49.53
2018-08-21T22:07:26.677Z,52.37
2018-08-21T22:09:59.172Z,51.43
2018-08-21T22:12:32.072Z,51.50
2018-08-21T22:15:04.323Z,49.47
2018-08-21T22:17:36.679Z,50.67
2018-08-21T22:20:09.061Z,46.60
2018-08-21T22:22:41.052Z,52.50
2018-08-21T22:25:12.958Z,51.87
2018-08-21T22:27:46.058Z,54.83
2018-08-21T22:30:18.548Z,53.47
2018-08-21T22:32:50.961Z,56.70
2018-08-21T22:35:23.323Z,58.03
2018-08-21T22:37:55.957Z,57.67
2018-08-21T22:40:28.695Z,62.90
2018-08-21T22:43:00.790Z,60.40
2018-08-21T22:45:32.541Z,61.07
2018-08-21T22:48:04.933Z,61.97
2018-08-21T22:50:37.704Z,56.10
2018-08-21T22:53:09.980Z,58.63
2018-08-21T22:55:43.554Z,59.90
2018-08-21T22:58:15.914Z,59.90
2018-08-21T23:00:50.125Z,61.50
2018-08-21T23:03:23.468Z,62.67
2018-08-21T23:05:55.901Z,56.87
2018-08-21T23:08:28.264Z,63.10
2018-08-21T23:11:00.676Z,59.30
2018-08-21T23:13:33.570Z,57.40
2018-08-21T23:16:06.724Z,61.90
2018-08-21T23:18:39.103Z,59.37
2018-08-21T23:21:11.675Z,64.27
2018-08-21T23:23:44.003Z,59.00
2018-08-21T23:26:16.117Z,63.10
2018-08-21T23:28:48.486Z,61.83
2018-08-21T23:31:20.762Z,62.20
2018-08-21T23:33:53.363Z,65.03
2018-08-21T23:36:25.935Z,61.27
2018-08-21T23:38:58.113Z,59.30
2018-08-21T23:41:30.525Z,65.20
2018-08-21T23:44:02.336Z,61.73
2018-08-21T23:46:34.532Z,63.60
2018-08-21T23:49:07.026Z,63.20
2018-08-21T23:51:39.408Z,59.33
2018-08-21T23:54:11.657Z,61.03
2018-08-21T23:56:43.864Z,59.90
2018-08-21T23:59:16.295Z,60.00
